Time;durP1;ratioP1;P1;durP2;ratioP2;P2;SDS_P1;SDS_P2;PMS_P1;PMS_P2;Temp;Humidity;BMP_temperature;BMP_pressure;BME280_temperature;BME280_humidity;BME280_pressure;Samples;Min_cycle;Max_cycle;Signal;HPM_P1;HPM_P2
2021/05/01 00:02:41;;;;;;;13.88;6.60;;;;;;;;;;10338114;28;20041;-59
2021/05/01 00:07:38;;;;;;;9.48;6.57;;;;;;;;;;10340296;28;20032;-59
2021/05/01 00:12:39;;;;;;;10.20;6.82;;;;;;;;;;10337884;28;20558;-59
2021/05/01 00:17:37;;;;;;;13.85;7.13;;;;;;;;;;10337798;28;20055;-59
2021/05/01 00:22:34;;;;;;;10.60;6.95;;;;;;;;;;10339373;28;20060;-59
2021/05/01 00:27:32;;;;;;;12.00;7.05;;;;;;;;;;10337288;28;20039;-58
2021/05/01 00:32:29;;;;;;;12.55;7.63;;;;;;;;;;10337860;28;20079;-59
2021/05/01 00:37:27;;;;;;;12.07;6.22;;;;;;;;;;10337799;28;20063;-59
2021/05/01 00:42:25;;;;;;;9.93;6.47;;;;;;;;;;10337688;28;20064;-59
2021/05/01 00:47:22;;;;;;;13.60;7.82;;;;;;;;;;10336478;28;20051;-59
2021/05/01 00:52:19;;;;;;;12.23;7.05;;;;;;;;;;10336831;28;20094;-59
2021/05/01 00:57:18;;;;;;;15.52;7.68;;;;;;;;;;10336188;28;20513;-59
2021/05/01 01:02:17;;;;;;;9.70;6.78;;;;;;;;;;10338075;28;20056;-59
2021/05/01 01:07:15;;;;;;;11.32;7.18;;;;;;;;;;10336286;28;20052;-59
2021/05/01 01:12:12;;;;;;;7.95;5.90;;;;;;;;;;10337294;28;20087;-59
2021/05/01 01:17:11;;;;;;;9.18;5.43;;;;;;;;;;10336858;28;20047;-59
2021/05/01 01:22:13;;;;;;;10.95;6.95;;;;;;;;;;10336668;28;20036;-58
2021/05/01 01:27:11;;;;;;;10.70;4.50;;;;;;;;;;10336876;28;20043;-59
2021/05/01 01:32:10;;;;;;;4.85;3.75;;;;;;;;;;10336276;28;20083;-59
2021/05/01 01:37:07;;;;;;;5.53;3.92;;;;;;;;;;10335235;28;20051;-59
2021/05/01 01:42:07;;;;;;;12.43;7.30;;;;;;;;;;10343150;28;20437;-59
2021/05/01 01:47:04;;;;;;;14.43;8.05;;;;;;;;;;10343744;28;20040;-59
2021/05/01 01:52:03;;;;;;;8.25;4.88;;;;;;;;;;10344138;28;20041;-59
2021/05/01 01:57:00;;;;;;;4.50;3.45;;;;;;;;;;10343326;28;20509;-60
2021/05/01 02:01:59;;;;;;;8.52;4.03;;;;;;;;;;10343516;28;20043;-59
2021/05/01 02:06:57;;;;;;;8.70;4.30;;;;;;;;;;10343504;28;20075;-59
2021/05/01 02:11:54;;;;;;;10.43;3.65;;;;;;;;;;10341373;28;20538;-59
2021/05/01 02:16:52;;;;;;;7.90;3.90;;;;;;;;;;10343841;28;20074;-59
2021/05/01 02:21:50;;;;;;;5.53;3.67;;;;;;;;;;10341424;28;20044;-59
2021/05/01 02:26:48;;;;;;;6.97;3.50;;;;;;;;;;10322670;28;20068;-59
2021/05/01 02:31:45;;;;;;;6.88;4.20;;;;;;;;;;10335525;28;20075;-59
2021/05/01 02:36:42;;;;;;;9.52;4.50;;;;;;;;;;10341202;28;20489;-59
2021/05/01 02:41:40;;;;;;;7.80;3.63;;;;;;;;;;10342555;28;20075;-59
2021/05/01 02:46:38;;;;;;;8.45;3.75;;;;;;;;;;10342348;28;20067;-59
2021/05/01 02:51:35;;;;;;;5.65;3.85;;;;;;;;;;10340263;28;20072;-59
2021/05/01 02:56:32;;;;;;;5.57;4.80;;;;;;;;;;10342723;28;20068;-59
2021/05/01 03:01:31;;;;;;;8.68;3.70;;;;;;;;;;10340971;28;20497;-59
2021/05/01 03:06:28;;;;;;;8.77;4.05;;;;;;;;;;10342347;28;20047;-59
2021/05/01 03:11:25;;;;;;;9.25;3.70;;;;;;;;;;10340523;28;20077;-59
2021/05/01 03:16:23;;;;;;;10.18;3.60;;;;;;;;;;10340944;28;20044;-59
2021/05/01 03:21:21;;;;;;;10.02;3.63;;;;;;;;;;10341278;28;20065;-58
2021/05/01 03:26:20;;;;;;;8.23;3.85;;;;;;;;;;10339790;28;20048;-60
2021/05/01 03:31:17;;;;;;;7.75;3.08;;;;;;;;;;10341410;28;20083;-60
2021/05/01 03:36:14;;;;;;;8.88;3.65;;;;;;;;;;10338362;28;20044;-60
2021/05/01 03:41:13;;;;;;;8.35;3.58;;;;;;;;;;10340828;28;20048;-60
2021/05/01 03:46:10;;;;;;;5.18;3.83;;;;;;;;;;10337528;28;20043;-58
2021/05/01 03:51:07;;;;;;;7.20;3.70;;;;;;;;;;10339826;28;20059;-58
2021/05/01 03:56:05;;;;;;;5.47;2.70;;;;;;;;;;10339498;28;20047;-58
2021/05/01 04:01:03;;;;;;;8.70;3.45;;;;;;;;;;10338086;28;20084;-58
2021/05/01 04:06:00;;;;;;;6.15;3.42;;;;;;;;;;10339952;28;20451;-58
2021/05/01 04:10:58;;;;;;;5.07;3.45;;;;;;;;;;10338000;28;20079;-58
2021/05/01 04:15:55;;;;;;;12.90;7.28;;;;;;;;;;10339809;28;20049;-60
2021/05/01 04:20:53;;;;;;;16.02;7.60;;;;;;;;;;10337936;28;20503;-60
2021/05/01 04:25:51;;;;;;;11.93;4.80;;;;;;;;;;10338314;28;20117;-60
2021/05/01 04:30:49;;;;;;;12.13;5.72;;;;;;;;;;10338029;28;20064;-60
2021/05/01 04:35:46;;;;;;;12.93;8.15;;;;;;;;;;10337125;28;20068;-59
2021/05/01 04:40:44;;;;;;;22.85;16.70;;;;;;;;;;10338966;28;20052;-59
2021/05/01 04:45:41;;;;;;;23.08;15.35;;;;;;;;;;10335257;28;20051;-59
2021/05/01 04:50:40;;;;;;;16.67;8.45;;;;;;;;;;10337666;28;20048;-59
2021/05/01 04:55:37;;;;;;;28.20;10.93;;;;;;;;;;10336550;28;20071;-59
2021/05/01 05:00:35;;;;;;;14.57;8.77;;;;;;;;;;10337418;28;20076;-59
2021/05/01 05:05:33;;;;;;;14.32;8.98;;;;;;;;;;10336142;28;20063;-59
2021/05/01 05:10:30;;;;;;;19.55;11.13;;;;;;;;;;10336114;28;20036;-58
2021/05/01 05:15:28;;;;;;;26.40;13.65;;;;;;;;;;10336712;28;20086;-58
2021/05/01 05:20:26;;;;;;;15.63;11.18;;;;;;;;;;10334978;28;20044;-59
2021/05/01 05:25:23;;;;;;;15.90;7.15;;;;;;;;;;10337125;28;20040;-59
2021/05/01 05:30:21;;;;;;;10.27;5.38;;;;;;;;;;10335408;28;20060;-59
2021/05/01 05:35:18;;;;;;;12.60;6.07;;;;;;;;;;10334137;28;20091;-59
2021/05/01 05:40:17;;;;;;;6.55;5.03;;;;;;;;;;10336108;28;20040;-60
2021/05/01 05:45:22;;;;;;;15.50;5.93;;;;;;;;;;10334120;28;20036;-60
2021/05/01 05:50:19;;;;;;;9.18;4.47;;;;;;;;;;10335960;28;20072;-59
2021/05/01 05:55:25;;;;;;;32.53;23.65;;;;;;;;;;10336530;28;20122;-59
2021/05/01 06:00:23;;;;;;;10.80;6.72;;;;;;;;;;10335141;28;20103;-59
2021/05/01 06:05:22;;;;;;;16.95;9.75;;;;;;;;;;10335791;28;20068;-59
2021/05/01 06:10:21;;;;;;;16.35;11.18;;;;;;;;;;10335650;28;20039;-59
2021/05/01 06:15:20;;;;;;;18.75;10.75;;;;;;;;;;10334715;28;20068;-60
2021/05/01 06:20:17;;;;;;;13.77;9.77;;;;;;;;;;10334553;28;20075;-60
2021/05/01 06:25:15;;;;;;;25.83;12.93;;;;;;;;;;10336675;28;20087;-59
2021/05/01 06:30:13;;;;;;;21.70;14.32;;;;;;;;;;10341408;28;20385;-60
2021/05/01 06:35:15;;;;;;;21.00;9.30;;;;;;;;;;10341319;28;20075;-60
2021/05/01 06:40:15;;;;;;;18.13;9.50;;;;;;;;;;10335402;28;20528;-60
2021/05/01 06:45:13;;;;;;;18.33;8.50;;;;;;;;;;10335527;28;20075;-60
2021/05/01 06:50:12;;;;;;;17.48;8.93;;;;;;;;;;10337497;28;20076;-60
2021/05/01 06:55:12;;;;;;;17.35;9.98;;;;;;;;;;10339996;28;20064;-60
2021/05/01 07:00:10;;;;;;;16.48;9.43;;;;;;;;;;10339683;28;20506;-60
2021/05/01 07:05:08;;;;;;;9.82;7.72;;;;;;;;;;10337695;28;20588;-61
2021/05/01 07:10:06;;;;;;;18.77;9.65;;;;;;;;;;10340718;28;20044;-60
2021/05/01 07:15:05;;;;;;;14.30;9.25;;;;;;;;;;10340945;28;20067;-60
2021/05/01 07:20:03;;;;;;;17.02;14.35;;;;;;;;;;10340044;28;20519;-58
2021/05/01 07:25:01;;;;;;;14.15;10.13;;;;;;;;;;10341283;28;20052;-58
2021/05/01 07:29:59;;;;;;;34.28;19.45;;;;;;;;;;10339232;28;20036;-58
2021/05/01 07:34:58;;;;;;;15.25;10.70;;;;;;;;;;10341064;28;20518;-59
2021/05/01 07:39:56;;;;;;;14.98;11.25;;;;;;;;;;10338532;28;20036;-59
2021/05/01 07:44:56;;;;;;;20.77;11.93;;;;;;;;;;10339923;28;20079;-59
2021/05/01 07:49:55;;;;;;;20.08;12.90;;;;;;;;;;10338500;28;20532;-60
2021/05/01 07:54:53;;;;;;;18.67;11.65;;;;;;;;;;10339090;28;20532;-60
2021/05/01 07:59:50;;;;;;;21.55;13.40;;;;;;;;;;10339228;28;20044;-59
2021/05/01 08:04:47;;;;;;;17.48;11.07;;;;;;;;;;10337846;28;20044;-60
2021/05/01 08:09:45;;;;;;;20.40;9.75;;;;;;;;;;10339438;28;20075;-60
2021/05/01 08:14:43;;;;;;;18.25;9.10;;;;;;;;;;10337114;28;20078;-59
2021/05/01 08:19:40;;;;;;;22.08;10.00;;;;;;;;;;10339267;28;20075;-59
2021/05/01 08:24:38;;;;;;;25.35;14.32;;;;;;;;;;10337558;28;20074;-60
2021/05/01 08:29:35;;;;;;;14.88;7.97;;;;;;;;;;10337778;28;20056;-60
2021/05/01 08:34:34;;;;;;;19.17;10.90;;;;;;;;;;10337981;28;20090;-60
2021/05/01 08:39:31;;;;;;;18.85;12.68;;;;;;;;;;10336638;28;20060;-60
2021/05/01 08:44:28;;;;;;;11.38;7.72;;;;;;;;;;10338631;28;20501;-60
2021/05/01 08:49:26;;;;;;;19.63;11.40;;;;;;;;;;10335159;28;20044;-59
2021/05/01 08:54:24;;;;;;;19.58;8.70;;;;;;;;;;10337361;28;20068;-59
2021/05/01 08:59:21;;;;;;;14.82;9.43;;;;;;;;;;10336585;28;20044;-60
2021/05/01 09:04:19;;;;;;;21.25;5.32;;;;;;;;;;10336658;28;20040;-60
2021/05/01 09:09:16;;;;;;;10.18;5.88;;;;;;;;;;10336828;28;20486;-60
2021/05/01 09:14:15;;;;;;;12.05;5.53;;;;;;;;;;10335504;28;20060;-60
2021/05/01 09:19:29;;;;;;;14.85;5.60;;;;;;;;;;10337165;28;20048;-60
2021/05/01 09:24:26;;;;;;;10.65;6.00;;;;;;;;;;10335826;28;20035;-60
2021/05/01 09:29:29;;;;;;;13.10;5.13;;;;;;;;;;10336739;28;20060;-59
2021/05/01 09:34:39;;;;;;;12.50;5.05;;;;;;;;;;10335433;28;20114;-60
2021/05/01 09:39:46;;;;;;;12.35;4.95;;;;;;;;;;10334950;28;20064;-60
2021/05/01 09:44:44;;;;;;;17.48;5.95;;;;;;;;;;10335942;28;20055;-60
2021/05/01 09:49:42;;;;;;;19.50;9.38;;;;;;;;;;10335281;28;20044;-60
2021/05/01 09:54:39;;;;;;;15.40;5.78;;;;;;;;;;10336380;28;20063;-60
2021/05/01 09:59:39;;;;;;;17.63;8.50;;;;;;;;;;10336350;28;20472;-60
2021/05/01 10:04:37;;;;;;;20.58;10.07;;;;;;;;;;10322599;28;20039;-60
2021/05/01 10:09:36;;;;;;;13.27;6.03;;;;;;;;;;10330000;28;20072;-60
2021/05/01 10:14:38;;;;;;;10.23;5.18;;;;;;;;;;10322299;28;20071;-60
2021/05/01 10:19:46;;;;;;;12.73;5.95;;;;;;;;;;10322087;28;20079;-60
2021/05/01 10:24:44;;;;;;;9.00;7.10;;;;;;;;;;10342004;28;20044;-60
2021/05/01 10:29:43;;;;;;;8.90;5.70;;;;;;;;;;10343405;28;20055;-60
2021/05/01 10:34:42;;;;;;;13.27;8.40;;;;;;;;;;10341497;28;20072;-60
2021/05/01 10:39:44;;;;;;;16.13;9.60;;;;;;;;;;10341087;28;20036;-60
2021/05/01 10:44:54;;;;;;;16.30;6.78;;;;;;;;;;10340989;28;20048;-60
2021/05/01 10:49:51;;;;;;;15.38;10.50;;;;;;;;;;10342153;28;20043;-60
2021/05/01 10:54:59;;;;;;;13.95;7.68;;;;;;;;;;10341110;28;20078;-59
2021/05/01 10:59:58;;;;;;;17.80;9.13;;;;;;;;;;10341255;28;20056;-60
2021/05/01 11:04:57;;;;;;;15.60;6.82;;;;;;;;;;10341768;28;20071;-60
2021/05/01 11:10:01;;;;;;;14.27;6.30;;;;;;;;;;10340853;28;20051;-60
2021/05/01 11:15:01;;;;;;;20.60;8.02;;;;;;;;;;10340706;28;20501;-60
2021/05/01 11:20:00;;;;;;;12.43;6.70;;;;;;;;;;10339872;28;20047;-60
2021/05/01 11:24:57;;;;;;;11.73;5.18;;;;;;;;;;10340898;28;20049;-60
2021/05/01 11:29:55;;;;;;;16.13;8.73;;;;;;;;;;10340515;28;20047;-60
2021/05/01 11:34:59;;;;;;;20.48;10.90;;;;;;;;;;10339569;28;20072;-60
2021/05/01 11:39:57;;;;;;;26.95;8.43;;;;;;;;;;10339808;28;20064;-60
2021/05/01 11:44:56;;;;;;;18.98;8.15;;;;;;;;;;10339360;28;20047;-60
2021/05/01 11:49:55;;;;;;;13.05;6.53;;;;;;;;;;10340039;28;20074;-60
2021/05/01 11:54:59;;;;;;;19.08;10.63;;;;;;;;;;10338843;28;20450;-60
2021/05/01 11:59:59;;;;;;;18.52;10.13;;;;;;;;;;10339581;28;20048;-60
2021/05/01 12:05:00;;;;;;;23.83;10.30;;;;;;;;;;10338550;28;20040;-60
2021/05/01 12:10:01;;;;;;;27.58;11.00;;;;;;;;;;10338820;28;20047;-61
2021/05/01 12:15:02;;;;;;;17.73;6.13;;;;;;;;;;10338570;28;20072;-59
2021/05/01 12:20:08;;;;;;;20.65;7.80;;;;;;;;;;10337924;28;20521;-60
2021/05/01 12:25:21;;;;;;;19.80;8.88;;;;;;;;;;10339309;28;20049;-60
2021/05/01 12:30:37;;;;;;;14.80;9.40;;;;;;;;;;10336011;28;20052;-60
2021/05/01 12:35:37;;;;;;;21.30;11.20;;;;;;;;;;10336327;28;20491;-60
2021/05/01 12:40:34;;;;;;;15.18;8.48;;;;;;;;;;10317028;28;20040;-60
2021/05/01 12:45:33;;;;;;;14.07;6.80;;;;;;;;;;10317120;28;20076;-60
2021/05/01 12:50:30;;;;;;;18.92;7.68;;;;;;;;;;10316267;28;20040;-60
2021/05/01 12:55:28;;;;;;;14.27;7.57;;;;;;;;;;10316434;28;20455;-61
2021/05/01 13:00:27;;;;;;;16.98;8.05;;;;;;;;;;10319107;28;20047;-60
2021/05/01 13:05:25;;;;;;;10.80;7.03;;;;;;;;;;10337186;28;20064;-60
2021/05/01 13:10:23;;;;;;;16.60;5.28;;;;;;;;;;10337288;28;20075;-58
2021/05/01 13:15:22;;;;;;;19.15;8.35;;;;;;;;;;10335732;28;20451;-58
2021/05/01 13:20:22;;;;;;;16.27;6.68;;;;;;;;;;10337356;28;20051;-59
2021/05/01 13:25:21;;;;;;;17.52;6.43;;;;;;;;;;10335912;28;20501;-58
2021/05/01 13:30:19;;;;;;;12.02;5.32;;;;;;;;;;10315950;28;20056;-59
2021/05/01 13:35:18;;;;;;;14.98;6.82;;;;;;;;;;10318380;28;20075;-59
2021/05/01 13:40:19;;;;;;;16.63;6.50;;;;;;;;;;10323945;28;20045;-59
2021/05/01 13:45:17;;;;;;;14.80;6.30;;;;;;;;;;10323799;28;20041;-59
2021/05/01 13:50:15;;;;;;;17.15;6.95;;;;;;;;;;10333649;28;20064;-59
2021/05/01 13:55:30;;;;;;;13.15;5.65;;;;;;;;;;10328046;28;20076;-59
2021/05/01 14:00:30;;;;;;;13.32;6.22;;;;;;;;;;10323039;28;20072;-59
2021/05/01 14:05:29;;;;;;;20.15;7.35;;;;;;;;;;10322655;28;20501;-60
2021/05/01 14:10:30;;;;;;;18.45;6.65;;;;;;;;;;10321686;28;20421;-56
2021/05/01 14:15:30;;;;;;;20.23;6.78;;;;;;;;;;10339695;28;20074;-60
2021/05/01 14:20:29;;;;;;;15.88;8.38;;;;;;;;;;10329665;28;20057;-60
2021/05/01 14:25:27;;;;;;;23.08;11.70;;;;;;;;;;10336894;28;20082;-58
2021/05/01 14:30:37;;;;;;;20.33;8.75;;;;;;;;;;10341789;28;20064;-59
2021/05/01 14:35:35;;;;;;;24.25;13.68;;;;;;;;;;10341613;28;20360;-59
2021/05/01 14:40:35;;;;;;;20.23;9.43;;;;;;;;;;10341594;28;20083;-59
2021/05/01 14:45:33;;;;;;;20.48;6.70;;;;;;;;;;10338968;28;20474;-59
2021/05/01 14:50:31;;;;;;;32.63;7.32;;;;;;;;;;10339573;28;20072;-60
2021/05/01 14:55:29;;;;;;;21.98;8.40;;;;;;;;;;10339191;28;20075;-59
2021/05/01 15:00:26;;;;;;;27.95;10.20;;;;;;;;;;10332509;28;20532;-59
2021/05/01 15:05:25;;;;;;;14.98;9.00;;;;;;;;;;10324529;28;20076;-60
2021/05/01 15:10:23;;;;;;;19.83;7.50;;;;;;;;;;10341278;28;20056;-59
2021/05/01 15:15:23;;;;;;;22.63;7.03;;;;;;;;;;10339017;28;20560;-59
2021/05/01 15:20:31;;;;;;;15.60;5.68;;;;;;;;;;10338343;28;20079;-59
2021/05/01 15:25:28;;;;;;;15.35;7.10;;;;;;;;;;10339519;28;20520;-59
2021/05/01 15:30:28;;;;;;;15.90;5.70;;;;;;;;;;10338844;28;20195;-58
2021/05/01 15:35:25;;;;;;;19.08;6.60;;;;;;;;;;10337519;28;20072;-59
2021/05/01 15:40:23;;;;;;;16.08;7.15;;;;;;;;;;10337165;28;20063;-59
2021/05/01 15:45:21;;;;;;;17.05;8.75;;;;;;;;;;10327991;28;20094;-57
2021/05/01 15:50:19;;;;;;;15.45;6.50;;;;;;;;;;10336384;28;20083;-58
2021/05/01 15:55:17;;;;;;;19.90;7.78;;;;;;;;;;10335966;28;20075;-58
2021/05/01 16:00:20;;;;;;;19.48;6.57;;;;;;;;;;10336958;28;20437;-58
2021/05/01 16:05:17;;;;;;;16.98;7.25;;;;;;;;;;10330463;28;20080;-58
2021/05/01 16:10:16;;;;;;;16.42;5.70;;;;;;;;;;10326262;28;20075;-57
2021/05/01 16:15:14;;;;;;;20.58;6.10;;;;;;;;;;10340455;28;20126;-59
2021/05/01 16:20:13;;;;;;;19.35;6.25;;;;;;;;;;10330278;28;20075;-58
2021/05/01 16:25:11;;;;;;;17.92;6.60;;;;;;;;;;10332706;28;20086;-60
2021/05/01 16:30:12;;;;;;;17.10;6.28;;;;;;;;;;10334671;28;20067;-60
2021/05/01 16:35:10;;;;;;;11.65;6.68;;;;;;;;;;10334593;28;20083;-60
2021/05/01 16:40:08;;;;;;;17.73;6.25;;;;;;;;;;10334133;28;20524;-59
2021/05/01 16:45:07;;;;;;;13.52;5.85;;;;;;;;;;10331011;28;20090;-60
2021/05/01 16:50:06;;;;;;;18.35;6.07;;;;;;;;;;10331446;28;20152;-59
2021/05/01 16:55:04;;;;;;;12.35;5.15;;;;;;;;;;10335320;28;20523;-60
2021/05/01 17:00:01;;;;;;;14.30;5.35;;;;;;;;;;10330997;28;20084;-57
2021/05/01 17:04:58;;;;;;;14.32;6.13;;;;;;;;;;10333164;28;20068;-59
2021/05/01 17:09:57;;;;;;;13.85;4.88;;;;;;;;;;10333398;28;20060;-60
2021/05/01 17:14:54;;;;;;;15.40;5.63;;;;;;;;;;10327572;28;20079;-60
2021/05/01 17:19:52;;;;;;;16.17;5.40;;;;;;;;;;10333383;28;20080;-60
2021/05/01 17:24:49;;;;;;;28.45;6.63;;;;;;;;;;10332091;28;20048;-58
2021/05/01 17:29:47;;;;;;;15.93;5.78;;;;;;;;;;10327296;28;20147;-58
2021/05/01 17:34:47;;;;;;;14.23;6.90;;;;;;;;;;10314145;28;20095;-59
2021/05/01 17:39:44;;;;;;;15.35;5.82;;;;;;;;;;10316978;28;20075;-59
2021/05/01 17:44:42;;;;;;;11.45;5.03;;;;;;;;;;10315807;28;20067;-57
2021/05/01 17:49:40;;;;;;;17.63;5.40;;;;;;;;;;10322064;28;20055;-57
2021/05/01 17:54:38;;;;;;;18.33;6.03;;;;;;;;;;10323446;28;20075;-59
2021/05/01 17:59:35;;;;;;;14.65;5.65;;;;;;;;;;10330261;28;20570;-59
2021/05/01 18:04:35;;;;;;;10.18;5.80;;;;;;;;;;10328481;28;20076;-60
2021/05/01 18:09:33;;;;;;;14.07;5.80;;;;;;;;;;10330200;28;20087;-59
2021/05/01 18:14:31;;;;;;;13.75;5.20;;;;;;;;;;10325810;28;20071;-58
2021/05/01 18:19:28;;;;;;;14.82;5.85;;;;;;;;;;10333438;28;20496;-59
2021/05/01 18:24:26;;;;;;;15.15;5.70;;;;;;;;;;10339777;28;20071;-58
2021/05/01 18:29:24;;;;;;;13.38;5.50;;;;;;;;;;10342045;28;20059;-59
2021/05/01 18:34:22;;;;;;;8.93;4.75;;;;;;;;;;10342515;28;20075;-58
2021/05/01 18:39:19;;;;;;;15.48;7.25;;;;;;;;;;10341020;28;20504;-58
2021/05/01 18:44:17;;;;;;;11.75;5.38;;;;;;;;;;10342221;28;20052;-59
2021/05/01 18:49:15;;;;;;;14.75;6.10;;;;;;;;;;10339872;28;20417;-59
2021/05/01 18:54:12;;;;;;;12.88;4.88;;;;;;;;;;10341589;28;20087;-59
2021/05/01 18:59:10;;;;;;;16.73;5.40;;;;;;;;;;10340273;28;20067;-59
2021/05/01 19:04:07;;;;;;;15.93;4.65;;;;;;;;;;10340753;28;20072;-59
2021/05/01 19:09:06;;;;;;;14.70;5.65;;;;;;;;;;10340843;28;20108;-59
2021/05/01 19:14:04;;;;;;;8.38;4.57;;;;;;;;;;10338872;28;20079;-59
2021/05/01 19:19:03;;;;;;;13.85;5.47;;;;;;;;;;10341242;28;20051;-59
2021/05/01 19:24:01;;;;;;;14.40;4.55;;;;;;;;;;10339081;28;20070;-55
2021/05/01 19:28:59;;;;;;;15.18;6.88;;;;;;;;;;10338707;28;20456;-58
2021/05/01 19:33:57;;;;;;;21.92;6.85;;;;;;;;;;10339387;28;20075;-59
2021/05/01 19:38:54;;;;;;;43.40;35.40;;;;;;;;;;10338425;28;20420;-60
2021/05/01 19:43:52;;;;;;;24.30;12.38;;;;;;;;;;10337757;28;20077;-59
2021/05/01 19:48:50;;;;;;;16.27;8.15;;;;;;;;;;10338753;28;20044;-59
2021/05/01 19:53:47;;;;;;;16.95;6.93;;;;;;;;;;10336984;28;20098;-58
2021/05/01 19:58:44;;;;;;;33.90;22.25;;;;;;;;;;10338385;28;20501;-58
2021/05/01 20:03:42;;;;;;;14.68;7.50;;;;;;;;;;10323797;28;20064;-58
2021/05/01 20:08:40;;;;;;;12.30;6.05;;;;;;;;;;10337035;28;20492;-58
2021/05/01 20:13:37;;;;;;;14.18;5.82;;;;;;;;;;10336299;28;20729;-58
2021/05/01 20:18:35;;;;;;;13.15;5.20;;;;;;;;;;10336771;28;20055;-59
2021/05/01 20:23:33;;;;;;;19.60;5.45;;;;;;;;;;10334915;28;20063;-59
2021/05/01 20:28:32;;;;;;;12.30;4.55;;;;;;;;;;10328442;28;20118;-60
2021/05/01 20:33:29;;;;;;;9.05;4.70;;;;;;;;;;10338133;28;20048;-60
2021/05/01 20:38:28;;;;;;;14.40;4.93;;;;;;;;;;10337183;28;20071;-58
2021/05/01 20:43:28;;;;;;;16.00;4.53;;;;;;;;;;10334460;28;20079;-58
2021/05/01 20:48:26;;;;;;;13.80;4.72;;;;;;;;;;10336641;28;20072;-58
2021/05/01 20:53:23;;;;;;;19.85;4.28;;;;;;;;;;10336247;28;20074;-59
2021/05/01 20:58:21;;;;;;;19.60;5.28;;;;;;;;;;10335068;28;20076;-59
2021/05/01 21:03:18;;;;;;;15.13;4.57;;;;;;;;;;10318974;28;20156;-58
2021/05/01 21:08:16;;;;;;;22.58;5.32;;;;;;;;;;10313413;28;20076;-57
2021/05/01 21:13:14;;;;;;;17.35;5.13;;;;;;;;;;10316709;28;20068;-58
2021/05/01 21:18:11;;;;;;;13.32;4.95;;;;;;;;;;10314312;28;20079;-56
2021/05/01 21:23:10;;;;;;;16.40;5.32;;;;;;;;;;10316757;28;20068;-56
2021/05/01 21:28:08;;;;;;;15.68;5.32;;;;;;;;;;10316483;28;20076;-58
2021/05/01 21:33:05;;;;;;;19.15;5.50;;;;;;;;;;10330574;28;21376;-58
2021/05/01 21:38:03;;;;;;;14.93;4.75;;;;;;;;;;10323291;28;20509;-57
2021/05/01 21:43:00;;;;;;;24.27;5.35;;;;;;;;;;10334269;28;20477;-55
2021/05/01 21:47:58;;;;;;;12.10;4.85;;;;;;;;;;10328358;28;20068;-58
2021/05/01 21:52:56;;;;;;;14.77;5.40;;;;;;;;;;10334813;28;20068;-58
2021/05/01 21:57:54;;;;;;;15.70;5.43;;;;;;;;;;10337192;28;20084;-58
2021/05/01 22:02:51;;;;;;;22.67;5.65;;;;;;;;;;10335114;28;20069;-57
2021/05/01 22:07:49;;;;;;;12.65;5.20;;;;;;;;;;10338933;28;20076;-57
2021/05/01 22:12:46;;;;;;;14.80;5.03;;;;;;;;;;10340683;28;20547;-59
2021/05/01 22:17:44;;;;;;;14.10;4.85;;;;;;;;;;10337185;28;20381;-58
2021/05/01 22:22:53;;;;;;;24.77;6.00;;;;;;;;;;10335939;28;20064;-58
2021/05/01 22:27:51;;;;;;;15.15;5.03;;;;;;;;;;10337915;28;20068;-59
2021/05/01 22:32:48;;;;;;;20.17;5.72;;;;;;;;;;10341100;28;20076;-58
2021/05/01 22:37:46;;;;;;;16.10;7.35;;;;;;;;;;10339855;28;20075;-57
2021/05/01 22:42:44;;;;;;;13.75;5.53;;;;;;;;;;10338286;28;20068;-58
2021/05/01 22:47:42;;;;;;;11.35;5.82;;;;;;;;;;10339428;28;20059;-58
2021/05/01 22:52:40;;;;;;;12.75;5.43;;;;;;;;;;10339383;28;20091;-58
2021/05/01 22:57:38;;;;;;;17.77;6.97;;;;;;;;;;10321428;28;20095;-57
2021/05/01 23:02:36;;;;;;;20.63;7.47;;;;;;;;;;10345760;28;20072;-58
2021/05/01 23:07:34;;;;;;;14.43;5.90;;;;;;;;;;10336185;28;20060;-58
2021/05/01 23:12:32;;;;;;;14.77;6.75;;;;;;;;;;10336833;28;20090;-55
2021/05/01 23:17:29;;;;;;;19.88;7.60;;;;;;;;;;10338304;28;20071;-57
2021/05/01 23:22:27;;;;;;;15.13;6.65;;;;;;;;;;10340786;28;20043;-57
2021/05/01 23:27:25;;;;;;;13.80;6.05;;;;;;;;;;10323696;28;20041;-55
2021/05/01 23:32:25;;;;;;;21.85;7.50;;;;;;;;;;10325344;28;20072;-55
2021/05/01 23:37:23;;;;;;;15.02;6.80;;;;;;;;;;10339096;28;20086;-56
2021/05/01 23:42:20;;;;;;;17.45;7.13;;;;;;;;;;10338243;28;20040;-57
2021/05/01 23:47:18;;;;;;;15.88;6.75;;;;;;;;;;10340988;28;20083;-58
2021/05/01 23:52:16;;;;;;;13.38;7.57;;;;;;;;;;10338536;28;20060;-57
2021/05/01 23:57:13;;;;;;;14.40;7.30;;;;;;;;;;10337901;28;20088;-58
